Comblain-au-Pont, Belgium
Current Conditions -  °F | °C
As of 1:50 PM on Tuesday 21 Oct 2014 (Local Time) from EBLG Reporting Station
Broken Clouds Broken Clouds  
Wind Chill: 54°   Ceiling: 1300
Heat Index: 54°   Visibility: 6mi
Dew Point: 50°   Wind: 24mph
Humidity: 88%   Direction: 210°SSW
Pressure: 29.62"   Gusts: 40mph
Location:  50.47°N, 5.58°E
Report Text: EBLG 211150Z 21021G35KT 9000 SCT009 BKN013 12/10 Q1003 TEMPO 22020G40KT 3000 SHRA BKN010
Loading
Personal Weather Stations






























Interactive Weather Map
Tropical Storm Tracking
New forecast layout! Learn more

10-Day Weather Forecast

Advertisements
Track Severe Weather on mobile